createdAt,value
2023-04-09T00:01:08.928Z,9.78
2023-04-09T00:03:10.658Z,9.90
2023-04-09T00:05:12.252Z,9.97
2023-04-09T00:07:13.807Z,10.14
2023-04-09T00:09:15.421Z,10.13
2023-04-09T00:11:16.925Z,10.09
2023-04-09T00:13:25.284Z,9.92
2023-04-09T00:15:33.335Z,9.90
2023-04-09T00:17:34.827Z,9.84
2023-04-09T00:19:36.242Z,9.66
2023-04-09T00:21:37.964Z,9.60
2023-04-09T00:23:39.621Z,9.59
2023-04-09T00:25:41.050Z,9.49
2023-04-09T00:27:42.682Z,9.70
2023-04-09T00:29:44.278Z,9.76
2023-04-09T00:31:45.699Z,9.91
2023-04-09T00:33:47.312Z,9.89
2023-04-09T00:35:48.956Z,9.88
2023-04-09T00:37:50.397Z,9.74
2023-04-09T00:39:51.899Z,9.37
2023-04-09T00:41:57.771Z,9.40
2023-04-09T00:43:59.215Z,9.39
2023-04-09T00:46:01.202Z,9.45
2023-04-09T00:48:02.982Z,9.47
2023-04-09T00:50:04.751Z,9.32
2023-04-09T00:52:06.884Z,9.29
2023-04-09T00:54:08.517Z,9.28
2023-04-09T00:56:12.162Z,9.30
2023-04-09T00:58:14.183Z,9.32
2023-04-09T01:00:15.794Z,9.24
2023-04-09T01:02:17.287Z,9.08
2023-04-09T01:04:19.637Z,9.15
2023-04-09T01:06:21.171Z,9.06
2023-04-09T01:08:33.412Z,9.20
2023-04-09T01:10:39.980Z,9.46
2023-04-09T01:12:53.257Z,9.66
2023-04-09T01:15:29.687Z,9.56
2023-04-09T01:17:41.045Z,9.53
2023-04-09T01:20:03.115Z,9.31
2023-04-09T01:22:10.546Z,9.27
2023-04-09T01:24:33.563Z,9.26
2023-04-09T01:26:35.129Z,9.28
2023-04-09T01:28:44.654Z,9.26
2023-04-09T01:30:50.081Z,9.12
2023-04-09T01:32:53.907Z,9.14
2023-04-09T01:34:56.592Z,9.20
2023-04-09T01:37:02.351Z,9.37
2023-04-09T01:39:04.925Z,9.48
2023-04-09T01:41:07.631Z,9.58
2023-04-09T01:43:10.635Z,9.60
2023-04-09T01:45:13.261Z,9.57
2023-04-09T01:47:15.341Z,9.68
2023-04-09T01:49:18.120Z,9.80
2023-04-09T01:51:19.764Z,9.89
2023-04-09T01:53:22.101Z,10.00
2023-04-09T01:55:23.794Z,10.06
2023-04-09T01:57:25.266Z,9.75
2023-04-09T01:59:26.675Z,9.41
2023-04-09T02:01:36.106Z,9.07
2023-04-09T02:03:51.671Z,8.81
2023-04-09T02:06:04.141Z,8.54
2023-04-09T02:08:07.851Z,8.23
2023-04-09T02:10:10.012Z,8.28
2023-04-09T02:12:14.394Z,8.08
2023-04-09T02:14:17.912Z,8.07
2023-04-09T02:16:20.638Z,8.08
2023-04-09T02:18:30.404Z,8.13
2023-04-09T02:20:31.969Z,8.22
2023-04-09T02:22:33.522Z,8.12
2023-04-09T02:24:35.060Z,8.15
2023-04-09T02:26:36.587Z,8.23
2023-04-09T02:28:38.148Z,8.12
2023-04-09T02:30:39.603Z,8.14
2023-04-09T02:32:41.273Z,8.21
2023-04-09T02:34:42.784Z,8.28
2023-04-09T02:36:44.239Z,8.17
2023-04-09T02:38:45.879Z,8.21
2023-04-09T02:40:47.545Z,8.21
2023-04-09T02:42:48.944Z,8.30
2023-04-09T02:44:50.498Z,8.25
2023-04-09T02:46:52.078Z,8.23
2023-04-09T02:48:53.681Z,8.22
2023-04-09T02:50:55.365Z,8.41
2023-04-09T02:52:56.915Z,8.58
2023-04-09T02:54:58.335Z,8.54
2023-04-09T02:56:59.838Z,8.70
2023-04-09T02:59:01.483Z,8.65
2023-04-09T03:01:03.005Z,8.49
2023-04-09T03:03:04.809Z,8.41
2023-04-09T03:05:07.027Z,8.43
2023-04-09T03:07:08.532Z,8.44
2023-04-09T03:09:10.205Z,8.50
2023-04-09T03:11:11.838Z,8.66
2023-04-09T03:13:13.331Z,8.62
2023-04-09T03:15:14.939Z,8.88
2023-04-09T03:17:16.631Z,8.97
2023-04-09T03:19:18.098Z,9.14
2023-04-09T03:21:19.797Z,9.15
2023-04-09T03:23:21.379Z,9.26
2023-04-09T03:25:22.867Z,9.33
2023-04-09T03:27:24.641Z,9.43
2023-04-09T03:29:26.231Z,9.57
2023-04-09T03:31:27.741Z,9.59
2023-04-09T03:33:29.475Z,9.67
2023-04-09T03:35:31.098Z,9.69
2023-04-09T03:37:32.727Z,9.66
2023-04-09T03:39:34.461Z,9.77
2023-04-09T03:41:36.153Z,9.72
2023-04-09T03:43:37.697Z,9.63
2023-04-09T03:45:39.261Z,9.66
2023-04-09T03:47:40.869Z,9.74
2023-04-09T03:49:42.427Z,9.69
2023-04-09T03:51:43.979Z,9.75
2023-04-09T03:53:45.587Z,9.63
2023-04-09T03:55:47.067Z,9.59
2023-04-09T03:57:48.633Z,9.64
2023-04-09T03:59:50.196Z,9.65
2023-04-09T04:01:51.749Z,9.71
2023-04-09T04:03:53.569Z,9.69
2023-04-09T04:06:01.039Z,9.53
2023-04-09T04:08:02.515Z,9.52
2023-04-09T04:10:06.052Z,9.40
2023-04-09T04:12:07.685Z,9.52
2023-04-09T04:14:09.198Z,9.64
2023-04-09T04:16:10.914Z,9.72
2023-04-09T04:18:12.620Z,9.71
2023-04-09T04:20:14.110Z,9.61
2023-04-09T04:22:15.734Z,9.66
2023-04-09T04:24:17.949Z,9.63
2023-04-09T04:26:19.439Z,9.73
2023-04-09T04:28:21.004Z,9.76
2023-04-09T04:30:22.812Z,9.72
2023-04-09T04:32:24.566Z,9.80
2023-04-09T04:34:26.210Z,9.91
2023-04-09T04:36:27.755Z,9.84
2023-04-09T04:38:29.229Z,9.53
2023-04-09T04:40:30.871Z,9.58
2023-04-09T04:42:32.431Z,9.61
2023-04-09T04:44:33.929Z,9.54
2023-04-09T04:46:35.555Z,9.49
2023-04-09T04:48:37.098Z,9.62
2023-04-09T04:50:38.596Z,9.69
2023-04-09T04:52:40.365Z,9.67
2023-04-09T04:54:41.982Z,9.66
2023-04-09T04:56:43.472Z,9.86
2023-04-09T04:58:45.128Z,9.90
2023-04-09T05:00:47.730Z,9.93
2023-04-09T05:02:49.368Z,9.87
2023-04-09T05:04:51.086Z,9.93
2023-04-09T05:06:52.563Z,10.08
2023-04-09T05:08:54.276Z,9.96
2023-04-09T05:10:56.106Z,10.13
2023-04-09T05:12:57.700Z,10.06
2023-04-09T05:14:59.202Z,10.19
2023-04-09T05:17:00.921Z,10.25
2023-04-09T05:19:02.679Z,10.15
2023-04-09T05:21:04.353Z,10.16
2023-04-09T05:23:05.972Z,9.95
2023-04-09T05:25:08.131Z,9.96
2023-04-09T05:27:09.551Z,10.18
2023-04-09T05:29:11.148Z,10.13
2023-04-09T05:31:12.906Z,10.17
2023-04-09T05:33:14.594Z,10.12
2023-04-09T05:35:16.102Z,10.00
2023-04-09T05:37:17.571Z,9.98
2023-04-09T05:39:18.994Z,10.00
2023-04-09T05:41:20.578Z,9.95
2023-04-09T05:43:22.205Z,9.63
2023-04-09T05:45:23.642Z,9.59
2023-04-09T05:47:25.711Z,9.54
2023-04-09T05:49:27.262Z,9.69
2023-04-09T05:51:28.750Z,9.91
2023-04-09T05:53:31.672Z,9.88
2023-04-09T05:55:33.276Z,9.96
2023-04-09T05:57:34.733Z,9.93
2023-04-09T05:59:36.388Z,9.89
2023-04-09T06:01:37.938Z,10.21
2023-04-09T06:03:39.947Z,10.39
2023-04-09T06:05:41.712Z,10.63
2023-04-09T06:07:43.425Z,10.75
2023-04-09T06:09:44.879Z,10.92
2023-04-09T06:11:46.400Z,10.92
2023-04-09T06:13:47.926Z,11.16
2023-04-09T06:15:49.410Z,11.27
2023-04-09T06:17:51.140Z,11.15
2023-04-09T06:19:52.639Z,11.12
2023-04-09T06:21:54.047Z,11.31
2023-04-09T06:23:55.654Z,11.23
2023-04-09T06:25:57.142Z,11.17
2023-04-09T06:27:58.582Z,11.28
2023-04-09T06:30:00.232Z,11.50
2023-04-09T06:32:01.719Z,11.80
2023-04-09T06:34:03.398Z,11.78
2023-04-09T06:36:05.164Z,11.76
2023-04-09T06:38:06.710Z,11.84
2023-04-09T06:40:08.640Z,11.72
2023-04-09T06:42:10.194Z,12.00
2023-04-09T06:44:11.749Z,11.94
2023-04-09T06:46:13.174Z,12.07
2023-04-09T06:48:14.693Z,12.45
2023-04-09T06:50:16.418Z,12.60
2023-04-09T06:52:17.803Z,12.60
2023-04-09T06:54:20.480Z,12.73
2023-04-09T06:56:22.086Z,13.11
2023-04-09T06:58:23.551Z,13.16
2023-04-09T07:00:25.117Z,13.47
2023-04-09T07:02:26.855Z,13.50
2023-04-09T07:04:28.581Z,13.22
2023-04-09T07:06:30.337Z,14.21
2023-04-09T07:08:31.824Z,15.16
2023-04-09T07:10:33.290Z,15.37
2023-04-09T07:12:35.032Z,15.07
2023-04-09T07:14:36.845Z,16.30
2023-04-09T07:16:38.413Z,16.37
2023-04-09T07:18:40.103Z,15.93
2023-04-09T07:20:41.507Z,15.32
2023-04-09T07:22:43.005Z,15.67
2023-04-09T07:24:44.622Z,16.04
2023-04-09T07:26:46.248Z,16.20
2023-04-09T07:28:47.660Z,15.82
2023-04-09T07:30:49.384Z,15.46
2023-04-09T07:32:51.133Z,15.71
2023-04-09T07:34:53.204Z,15.82
2023-04-09T07:36:54.813Z,15.73
2023-04-09T07:38:56.269Z,14.79
2023-04-09T07:40:57.728Z,15.16
2023-04-09T07:42:59.330Z,15.22
2023-04-09T07:45:00.827Z,15.36
2023-04-09T07:47:06.340Z,15.63
2023-04-09T07:49:08.006Z,15.58
2023-04-09T07:51:09.611Z,15.26
2023-04-09T07:53:11.300Z,15.27
2023-04-09T07:55:13.048Z,15.16
2023-04-09T07:57:14.749Z,15.24
2023-04-09T07:59:16.629Z,15.40
2023-04-09T08:01:18.210Z,15.11
2023-04-09T08:03:19.994Z,14.80
2023-04-09T08:05:21.726Z,14.88
2023-04-09T08:07:23.423Z,15.16
2023-04-09T08:09:25.007Z,15.16
2023-04-09T08:11:26.419Z,14.95
2023-04-09T08:13:28.112Z,15.15
2023-04-09T08:15:29.581Z,15.20
2023-04-09T08:17:31.171Z,15.66
2023-04-09T08:19:32.863Z,15.67
2023-04-09T08:21:34.512Z,16.04
2023-04-09T08:23:35.916Z,16.03
2023-04-09T08:25:37.590Z,15.88
2023-04-09T08:27:39.072Z,16.03
2023-04-09T08:29:40.493Z,16.11
2023-04-09T08:31:42.500Z,15.35
2023-04-09T08:33:44.212Z,15.32
2023-04-09T08:35:45.633Z,14.69
2023-04-09T08:37:47.160Z,14.74
2023-04-09T08:39:48.727Z,14.74
2023-04-09T08:41:52.315Z,14.65
2023-04-09T08:43:58.355Z,14.62
2023-04-09T08:46:01.619Z,14.00
2023-04-09T08:48:03.628Z,14.39
2023-04-09T08:50:05.666Z,14.84
2023-04-09T08:52:07.427Z,14.40
2023-04-09T08:54:09.053Z,14.18
2023-04-09T08:56:10.544Z,14.25
2023-04-09T08:58:12.155Z,14.38
2023-04-09T09:00:13.795Z,14.38
2023-04-09T09:02:15.371Z,14.35
2023-04-09T09:04:16.891Z,14.39
2023-04-09T09:06:22.138Z,14.70
2023-04-09T09:08:25.382Z,14.78
2023-04-09T09:10:37.947Z,14.63
2023-04-09T09:12:41.417Z,14.22
2023-04-09T09:14:43.138Z,14.57
2023-04-09T09:16:56.948Z,14.90
2023-04-09T09:18:59.255Z,14.66
2023-04-09T09:21:21.511Z,14.73
2023-04-09T09:23:35.412Z,15.08
2023-04-09T09:25:41.367Z,15.31
2023-04-09T09:27:43.155Z,15.13
2023-04-09T09:29:44.681Z,15.23
2023-04-09T09:31:48.060Z,15.54
2023-04-09T09:33:49.685Z,15.23
2023-04-09T09:35:53.371Z,15.18
2023-04-09T09:38:04.194Z,15.08
2023-04-09T09:40:06.535Z,14.79
2023-04-09T09:42:08.487Z,14.74
2023-04-09T09:44:11.596Z,15.16
2023-04-09T09:46:13.268Z,14.96
2023-04-09T09:48:15.406Z,15.19
2023-04-09T09:50:17.047Z,15.15
2023-04-09T09:52:25.467Z,14.64
2023-04-09T09:54:32.893Z,14.68
2023-04-09T09:56:38.984Z,14.42
2023-04-09T09:58:56.239Z,15.10
2023-04-09T10:00:58.311Z,14.69
2023-04-09T10:03:14.149Z,14.52
2023-04-09T10:05:15.999Z,15.01
2023-04-09T10:07:19.196Z,15.30
2023-04-09T10:09:22.263Z,15.47
2023-04-09T10:11:24.926Z,15.64
2023-04-09T10:13:30.323Z,15.53
2023-04-09T10:15:32.790Z,15.71
2023-04-09T10:17:34.228Z,16.00
2023-04-09T10:19:42.731Z,15.08
2023-04-09T10:21:57.446Z,15.35
2023-04-09T10:23:59.452Z,15.39
2023-04-09T10:26:01.026Z,15.37
2023-04-09T10:28:02.860Z,15.83
2023-04-09T10:30:04.801Z,16.42
2023-04-09T10:32:07.126Z,16.01
2023-04-09T10:34:10.868Z,16.01
2023-04-09T10:36:13.262Z,16.31
2023-04-09T10:38:15.356Z,15.54
2023-04-09T10:40:19.660Z,15.57
2023-04-09T10:42:30.299Z,15.94
2023-04-09T10:44:31.806Z,16.06
2023-04-09T10:46:37.097Z,16.30
2023-04-09T10:48:38.881Z,16.54
2023-04-09T10:50:43.706Z,16.65
2023-04-09T10:52:45.353Z,16.79
2023-04-09T10:54:47.597Z,16.62
2023-04-09T10:57:07.352Z,16.75
2023-04-09T10:59:08.769Z,16.32
2023-04-09T11:01:10.306Z,16.30
2023-04-09T11:03:30.603Z,16.56
2023-04-09T11:05:34.939Z,16.47
2023-04-09T11:07:41.458Z,16.13
2023-04-09T11:09:42.967Z,15.78
2023-04-09T11:11:44.379Z,15.57
2023-04-09T11:13:45.854Z,15.56
2023-04-09T11:15:47.714Z,16.05
2023-04-09T11:17:51.489Z,15.74
2023-04-09T11:19:53.047Z,15.86
2023-04-09T11:21:54.515Z,15.78
2023-04-09T11:23:55.969Z,15.76
2023-04-09T11:25:57.512Z,15.62
2023-04-09T11:27:59.799Z,15.78
2023-04-09T11:30:01.220Z,15.80
2023-04-09T11:32:03.494Z,15.67
2023-04-09T11:34:04.924Z,15.47
2023-04-09T11:36:06.562Z,15.46
2023-04-09T11:38:09.705Z,15.64
2023-04-09T11:40:25.980Z,15.32
2023-04-09T11:42:31.964Z,15.19
2023-04-09T11:44:33.548Z,15.68
2023-04-09T11:46:35.758Z,15.84
2023-04-09T11:48:37.273Z,15.70
2023-04-09T11:50:39.044Z,15.68
2023-04-09T11:52:40.693Z,15.24
2023-04-09T11:54:42.913Z,15.34
2023-04-09T11:56:44.440Z,15.36
2023-04-09T11:58:47.125Z,15.41
2023-04-09T12:00:50.543Z,15.56
2023-04-09T12:03:01.991Z,15.48
2023-04-09T12:05:04.075Z,15.86
2023-04-09T12:07:08.608Z,16.00
2023-04-09T12:09:10.485Z,15.98
2023-04-09T12:11:14.650Z,15.90
2023-04-09T12:13:16.040Z,15.81
2023-04-09T12:15:25.476Z,16.27
2023-04-09T12:17:26.936Z,16.07
2023-04-09T12:19:28.395Z,15.80
2023-04-09T12:21:53.343Z,15.89
2023-04-09T12:23:54.892Z,16.04
2023-04-09T12:25:56.333Z,16.09
2023-04-09T12:27:58.077Z,15.77
2023-04-09T12:29:59.653Z,15.70
2023-04-09T12:32:01.087Z,16.25
2023-04-09T12:34:02.557Z,16.31
2023-04-09T12:36:04.063Z,16.46
2023-04-09T12:38:05.790Z,16.26
2023-04-09T12:40:07.760Z,16.63
2023-04-09T12:42:09.173Z,16.85
2023-04-09T12:44:10.591Z,16.68
2023-04-09T12:46:12.158Z,16.50
2023-04-09T12:48:13.629Z,16.55
2023-04-09T12:50:15.544Z,17.10
2023-04-09T12:52:17.136Z,17.00
2023-04-09T12:54:18.716Z,17.10
2023-04-09T12:56:20.157Z,17.20
2023-04-09T12:58:21.562Z,17.36
2023-04-09T13:00:23.126Z,16.91
2023-04-09T13:02:24.671Z,17.18
2023-04-09T13:04:26.263Z,17.20
2023-04-09T13:06:27.723Z,17.18
2023-04-09T13:08:29.125Z,16.87
2023-04-09T13:10:31.242Z,16.85
2023-04-09T13:12:33.005Z,17.14
2023-04-09T13:14:34.423Z,17.74
2023-04-09T13:16:35.966Z,18.27
2023-04-09T13:18:37.512Z,18.13
2023-04-09T13:20:39.268Z,18.22
2023-04-09T13:22:40.784Z,17.72
2023-04-09T13:24:42.268Z,18.13
2023-04-09T13:26:43.679Z,18.10
2023-04-09T13:28:45.154Z,17.79
2023-04-09T13:30:47.978Z,17.35
2023-04-09T13:32:49.634Z,17.34
2023-04-09T13:34:51.151Z,17.47
2023-04-09T13:36:52.684Z,17.64
2023-04-09T13:38:54.694Z,17.62
2023-04-09T13:40:56.489Z,17.45
2023-04-09T13:42:57.983Z,16.94
2023-04-09T13:44:59.412Z,16.56
2023-04-09T13:47:01.013Z,16.54
2023-04-09T13:49:02.600Z,16.71
2023-04-09T13:51:04.300Z,16.54
2023-04-09T13:53:05.846Z,16.58
2023-04-09T13:55:08.159Z,17.02
2023-04-09T13:57:09.833Z,17.08
2023-04-09T13:59:11.355Z,16.87
2023-04-09T14:01:13.006Z,16.65
2023-04-09T14:03:14.829Z,16.61
2023-04-09T14:05:16.597Z,16.69
2023-04-09T14:07:18.144Z,16.83
2023-04-09T14:09:19.560Z,16.57
2023-04-09T14:11:21.132Z,16.13
2023-04-09T14:13:22.618Z,16.57
2023-04-09T14:15:24.094Z,16.45
2023-04-09T14:17:26.566Z,16.81
2023-04-09T14:19:28.126Z,17.03
2023-04-09T14:21:29.622Z,17.01
2023-04-09T14:23:31.256Z,16.72
2023-04-09T14:25:32.666Z,16.36
2023-04-09T14:27:34.062Z,16.51
2023-04-09T14:29:35.923Z,16.64
2023-04-09T14:31:37.588Z,16.25
2023-04-09T14:33:39.008Z,16.10
2023-04-09T14:35:40.611Z,16.43
2023-04-09T14:37:42.220Z,15.94
2023-04-09T14:39:43.631Z,16.04
2023-04-09T14:41:45.156Z,15.77
2023-04-09T14:43:46.730Z,15.95
2023-04-09T14:45:48.148Z,16.02
2023-04-09T14:47:49.668Z,15.90
2023-04-09T14:49:51.295Z,15.88
2023-04-09T14:51:52.819Z,15.72
2023-04-09T14:53:54.428Z,15.96
2023-04-09T14:55:55.924Z,16.05
2023-04-09T14:57:58.857Z,15.76
2023-04-09T15:00:00.258Z,15.94
2023-04-09T15:02:01.886Z,15.70
2023-04-09T15:04:03.440Z,16.09
2023-04-09T15:06:05.155Z,16.19
2023-04-09T15:08:06.593Z,15.90
2023-04-09T15:10:08.664Z,15.74
2023-04-09T15:12:10.081Z,15.65
2023-04-09T15:14:11.658Z,15.29
2023-04-09T15:16:24.896Z,15.51
2023-04-09T15:18:26.373Z,15.39
2023-04-09T15:20:27.895Z,15.28
2023-04-09T15:22:29.432Z,15.35
2023-04-09T15:24:30.847Z,15.54
2023-04-09T15:26:34.501Z,15.59
2023-04-09T15:28:35.825Z,15.38
2023-04-09T15:30:37.238Z,15.29
2023-04-09T15:32:38.826Z,15.16
2023-04-09T15:34:40.242Z,15.57
2023-04-09T15:36:41.653Z,15.21
2023-04-09T15:38:45.618Z,15.28
2023-04-09T15:40:47.525Z,14.86
2023-04-09T15:42:49.064Z,14.96
2023-04-09T15:44:50.777Z,14.91
2023-04-09T15:46:52.187Z,15.20
2023-04-09T15:48:53.932Z,15.51
2023-04-09T15:50:55.567Z,15.20
2023-04-09T15:52:56.988Z,15.15
2023-04-09T15:54:58.593Z,15.30
2023-04-09T15:57:00.099Z,15.57
2023-04-09T15:59:01.530Z,15.69
2023-04-09T16:01:07.741Z,15.22
2023-04-09T16:03:09.404Z,15.39
2023-04-09T16:05:10.797Z,15.58
2023-04-09T16:07:14.336Z,15.52
2023-04-09T16:09:15.899Z,15.11
2023-04-09T16:11:17.332Z,15.23
2023-04-09T16:13:19.248Z,15.20
2023-04-09T16:15:20.667Z,15.18
2023-04-09T16:17:22.127Z,15.05
2023-04-09T16:19:23.645Z,14.95
2023-04-09T16:21:25.153Z,15.33
2023-04-09T16:23:29.699Z,15.21
2023-04-09T16:25:32.034Z,15.35
2023-04-09T16:27:33.531Z,15.03
2023-04-09T16:29:35.003Z,14.93
2023-04-09T16:31:37.289Z,14.65
2023-04-09T16:33:38.800Z,14.47
2023-04-09T16:35:40.244Z,14.75
2023-04-09T16:37:41.830Z,14.60
2023-04-09T16:39:43.257Z,14.66
2023-04-09T16:41:44.776Z,14.69
2023-04-09T16:43:46.238Z,14.57
2023-04-09T16:45:47.758Z,14.46
2023-04-09T16:47:50.924Z,14.69
2023-04-09T16:49:54.056Z,14.54
2023-04-09T16:51:55.446Z,14.09
2023-04-09T16:53:56.852Z,13.90
2023-04-09T16:55:58.246Z,14.04
2023-04-09T16:57:59.699Z,13.94
2023-04-09T17:00:01.322Z,14.04
2023-04-09T17:02:02.929Z,13.99
2023-04-09T17:04:04.686Z,14.01
2023-04-09T17:06:06.508Z,14.05
2023-04-09T17:08:07.922Z,13.96
2023-04-09T17:10:09.583Z,13.93
2023-04-09T17:12:10.980Z,14.02
2023-04-09T17:14:12.582Z,13.95
2023-04-09T17:16:14.004Z,13.64
2023-04-09T17:18:15.390Z,13.73
2023-04-09T17:20:16.968Z,13.66
2023-04-09T17:22:18.417Z,13.79
2023-04-09T17:24:21.069Z,13.72
2023-04-09T17:26:22.760Z,13.44
2023-04-09T17:28:24.177Z,13.24
2023-04-09T17:30:25.585Z,13.13
2023-04-09T17:32:27.417Z,13.34
2023-04-09T17:34:28.863Z,13.44
2023-04-09T17:36:30.390Z,13.45
2023-04-09T17:38:32.181Z,13.19
2023-04-09T17:40:33.606Z,13.28
2023-04-09T17:42:35.018Z,13.22
2023-04-09T17:44:36.509Z,13.21
2023-04-09T17:46:37.937Z,13.39
2023-04-09T17:48:39.862Z,13.49
2023-04-09T17:50:41.439Z,13.39
2023-04-09T17:52:42.839Z,13.49
2023-04-09T17:54:45.319Z,13.57
2023-04-09T17:56:47.356Z,13.61
2023-04-09T17:58:48.825Z,13.48
2023-04-09T18:00:50.582Z,13.57
2023-04-09T18:02:52.861Z,13.61
2023-04-09T18:04:56.664Z,13.55
2023-04-09T18:06:58.181Z,13.62
2023-04-09T18:08:59.967Z,13.57
2023-04-09T18:11:12.261Z,13.66
2023-04-09T18:13:14.434Z,13.47
2023-04-09T18:15:16.110Z,13.23
2023-04-09T18:17:17.652Z,12.89
2023-04-09T18:19:19.320Z,12.89
2023-04-09T18:21:20.795Z,12.79
2023-04-09T18:23:22.216Z,12.97
2023-04-09T18:25:23.657Z,13.01
2023-04-09T18:27:25.431Z,13.01
2023-04-09T18:29:26.868Z,13.14
2023-04-09T18:31:28.598Z,13.08
2023-04-09T18:33:30.492Z,13.17
2023-04-09T18:35:31.931Z,13.30
2023-04-09T18:37:33.356Z,13.06
2023-04-09T18:39:34.912Z,13.03
2023-04-09T18:41:36.332Z,12.87
2023-04-09T18:43:37.708Z,12.70
2023-04-09T18:45:39.544Z,12.71
2023-04-09T18:47:41.007Z,12.66
2023-04-09T18:49:42.447Z,12.80
2023-04-09T18:51:44.080Z,12.82
2023-04-09T18:53:45.503Z,12.90
2023-04-09T18:55:46.905Z,12.94
2023-04-09T18:57:48.613Z,12.90
2023-04-09T18:59:50.043Z,12.92
2023-04-09T19:01:51.520Z,12.90
2023-04-09T19:03:53.133Z,12.83
2023-04-09T19:05:54.828Z,12.82
2023-04-09T19:08:00.339Z,12.88
2023-04-09T19:10:01.987Z,12.84
2023-04-09T19:12:03.494Z,12.84
2023-04-09T19:14:04.902Z,12.86
2023-04-09T19:16:06.898Z,12.96
2023-04-09T19:18:08.379Z,12.98
2023-04-09T19:20:10.269Z,12.93
2023-04-09T19:22:11.693Z,12.90
2023-04-09T19:24:13.141Z,12.75
2023-04-09T19:26:14.595Z,12.51
2023-04-09T19:28:16.197Z,12.38
2023-04-09T19:30:17.643Z,12.57
2023-04-09T19:32:19.077Z,12.57
2023-04-09T19:34:20.753Z,12.45
2023-04-09T19:36:22.148Z,12.49
2023-04-09T19:38:23.553Z,12.52
2023-04-09T19:40:25.242Z,12.37
2023-04-09T19:42:26.660Z,12.40
2023-04-09T19:44:28.098Z,12.33
2023-04-09T19:46:29.764Z,12.42
2023-04-09T19:48:31.217Z,12.29
2023-04-09T19:50:36.328Z,12.49
2023-04-09T19:52:39.906Z,12.29
2023-04-09T19:54:41.293Z,12.12
2023-04-09T19:56:42.691Z,12.32
2023-04-09T19:58:44.276Z,12.14
2023-04-09T20:00:45.725Z,12.17
2023-04-09T20:02:47.224Z,12.23
2023-04-09T20:04:49.124Z,12.10
2023-04-09T20:06:50.854Z,12.04
2023-04-09T20:08:52.553Z,12.16
2023-04-09T20:10:54.579Z,12.13
2023-04-09T20:12:56.014Z,12.06
2023-04-09T20:14:57.452Z,11.85
2023-04-09T20:16:59.091Z,11.81
2023-04-09T20:19:00.522Z,11.83
2023-04-09T20:21:01.988Z,11.86
2023-04-09T20:23:03.621Z,12.04
2023-04-09T20:25:05.408Z,12.04
2023-04-09T20:27:06.827Z,12.13
2023-04-09T20:29:08.322Z,12.20
2023-04-09T20:31:10.008Z,12.03
2023-04-09T20:33:11.389Z,11.88
2023-04-09T20:35:12.942Z,11.89
2023-04-09T20:37:14.351Z,11.74
2023-04-09T20:39:15.747Z,11.65
2023-04-09T20:41:17.265Z,11.67
2023-04-09T20:43:19.337Z,11.58
2023-04-09T20:45:20.720Z,11.67
2023-04-09T20:47:22.603Z,11.49
2023-04-09T20:49:24.009Z,11.39
2023-04-09T20:51:25.391Z,11.28
2023-04-09T20:53:26.975Z,11.73
2023-04-09T20:55:28.396Z,11.78
2023-04-09T20:57:29.856Z,11.77
2023-04-09T20:59:31.619Z,11.90
2023-04-09T21:01:33.133Z,11.98
2023-04-09T21:03:35.707Z,12.09
2023-04-09T21:05:37.431Z,12.14
2023-04-09T21:07:38.866Z,12.06
2023-04-09T21:09:40.260Z,12.04
2023-04-09T21:11:42.189Z,12.00
2023-04-09T21:13:54.117Z,11.86
2023-04-09T21:15:57.289Z,11.89
2023-04-09T21:17:58.826Z,11.86
2023-04-09T21:20:00.315Z,11.88
2023-04-09T21:22:01.750Z,11.88
2023-04-09T21:24:03.449Z,11.84
2023-04-09T21:26:05.023Z,11.88
2023-04-09T21:28:06.827Z,11.71
2023-04-09T21:30:08.756Z,11.62
2023-04-09T21:32:10.155Z,11.68
2023-04-09T21:34:11.569Z,11.65
2023-04-09T21:36:13.128Z,11.60
2023-04-09T21:38:14.599Z,11.65
2023-04-09T21:40:17.789Z,11.53
2023-04-09T21:42:19.695Z,11.53
2023-04-09T21:44:21.103Z,11.28
2023-04-09T21:46:22.602Z,11.33
2023-04-09T21:48:24.381Z,11.09
2023-04-09T21:50:25.784Z,11.08
2023-04-09T21:52:27.196Z,11.12
2023-04-09T21:54:28.789Z,11.13
2023-04-09T21:56:30.236Z,11.19
2023-04-09T21:58:31.715Z,11.16
2023-04-09T22:00:33.666Z,11.25
2023-04-09T22:02:35.289Z,11.17
2023-04-09T22:04:36.835Z,11.00
2023-04-09T22:06:38.757Z,11.21
2023-04-09T22:08:55.045Z,11.22
2023-04-09T22:10:57.319Z,11.15
2023-04-09T22:12:58.736Z,11.17
2023-04-09T22:15:00.154Z,11.03
2023-04-09T22:17:02.529Z,10.72
2023-04-09T22:19:04.112Z,10.62
2023-04-09T22:21:05.838Z,10.65
2023-04-09T22:23:07.247Z,10.37
2023-04-09T22:25:09.293Z,10.54
2023-04-09T22:27:10.918Z,10.50
2023-04-09T22:29:13.271Z,10.27
2023-04-09T22:31:14.782Z,10.28
2023-04-09T22:33:16.229Z,10.30
2023-04-09T22:35:17.683Z,10.26
2023-04-09T22:37:19.236Z,10.20
2023-04-09T22:39:20.669Z,10.07
2023-04-09T22:41:22.083Z,10.00
2023-04-09T22:43:24.076Z,10.01
2023-04-09T22:45:25.487Z,9.83
2023-04-09T22:47:26.901Z,9.84
2023-04-09T22:49:28.834Z,9.82
2023-04-09T22:51:30.223Z,9.73
2023-04-09T22:53:31.645Z,9.39
2023-04-09T22:55:33.478Z,9.80
2023-04-09T22:57:34.857Z,9.87
2023-04-09T22:59:40.243Z,9.87
2023-04-09T23:01:42.985Z,9.81
2023-04-09T23:03:44.508Z,9.87
2023-04-09T23:05:46.024Z,9.80
2023-04-09T23:07:47.696Z,9.75
2023-04-09T23:09:49.097Z,9.80
2023-04-09T23:11:50.500Z,9.81
2023-04-09T23:13:52.082Z,9.73
2023-04-09T23:15:53.512Z,9.55
2023-04-09T23:17:55.242Z,9.66
2023-04-09T23:19:56.914Z,9.54
2023-04-09T23:21:58.321Z,9.49
2023-04-09T23:23:59.716Z,9.54
2023-04-09T23:26:01.244Z,9.46
2023-04-09T23:28:02.644Z,9.48
2023-04-09T23:30:04.426Z,9.50
2023-04-09T23:32:06.024Z,9.38
2023-04-09T23:34:07.449Z,9.54
2023-04-09T23:36:09.104Z,9.55
2023-04-09T23:38:10.964Z,9.54
2023-04-09T23:40:12.601Z,9.59
2023-04-09T23:42:14.379Z,9.55
2023-04-09T23:44:15.985Z,9.40
2023-04-09T23:46:17.432Z,9.47
2023-04-09T23:48:18.834Z,9.35
2023-04-09T23:50:20.468Z,9.46
2023-04-09T23:52:21.893Z,9.48
2023-04-09T23:54:23.353Z,9.47
2023-04-09T23:56:25.131Z,9.41
2023-04-09T23:58:26.550Z,9.31
